SPHI/CIX METAR and TAF weather

Enter ICAO airport designator
Station Type Date Time Source
SPHI METAR 2019/04/24 16:00 UTC NOAA

SPHI 241600Z 17016KT CAVOK 28/17 Q1011 RMK PP000


Station Type Date Time Source
SPHI Decoded METAR 2019/04/24 16:00 UTC NOAA

Chiclayo, Peru (SPHI) 06-47S 079-50W 34M
Apr 24, 2019 - 12:00 PM EDT / 2019.04.24 1600 UTC
Wind: from the S (170 degrees) at 18 MPH (16 KT):0
Visibility: greater than 7 mile(s):0
Temperature: 82 F (28 C)
Dew Point: 62 F (17 C)
Relative Humidity: 51%
Pressure (altimeter): 29.85 in. Hg (1011 hPa)
ob: SPHI 241600Z 17016KT CAVOK 28/17 Q1011 RMK PP000
cycle: 16

Station Type Date Time Source
SPHI TAF 2019/04/24 12:33 UTC NOAA

TAF SPHI 241100Z 2412/2512 18007KT 9999 SCT030 SCT100 TX30/2419Z TN22/2511Z
FM241500 18012KT CAVOK
FM242200 18017KT 9999 BKN040 BKN130
FM250500 18008KT 9999 BKN033 BKN100

Example: see airport list